createdAt,value
2023-01-15T00:00:25.733Z,0.60
2023-01-15T00:02:55.935Z,0.80
2023-01-15T00:05:26.474Z,0.85
2023-01-15T00:07:56.860Z,0.60
2023-01-15T00:10:29.939Z,0.60
2023-01-15T00:12:59.250Z,0.60
2023-01-15T00:15:30.211Z,0.60
2023-01-15T00:18:04.175Z,0.70
2023-01-15T00:20:36.459Z,0.60
2023-01-15T00:23:06.702Z,0.57
2023-01-15T00:25:51.837Z,0.40
2023-01-15T00:28:40.631Z,0.47
2023-01-15T00:31:13.959Z,0.50
2023-01-15T00:33:43.541Z,0.65
2023-01-15T00:36:17.871Z,0.63
2023-01-15T00:38:53.334Z,0.60
2023-01-15T00:41:23.804Z,0.80
2023-01-15T00:43:51.039Z,0.40
2023-01-15T00:46:24.085Z,0.50
2023-01-15T00:48:54.737Z,0.60
2023-01-15T00:51:24.460Z,0.40
2023-01-15T00:53:55.110Z,0.50
2023-01-15T00:56:26.144Z,0.73
2023-01-15T00:58:56.275Z,0.60
2023-01-15T01:01:31.975Z,0.60
2023-01-15T01:04:04.813Z,0.60
2023-01-15T01:06:37.922Z,0.57
2023-01-15T01:09:10.638Z,0.80
2023-01-15T01:11:41.120Z,1.00
2023-01-15T01:14:08.599Z,0.60
2023-01-15T01:16:41.572Z,0.60
2023-01-15T01:19:11.798Z,0.40
2023-01-15T01:21:39.647Z,0.57
2023-01-15T01:24:13.815Z,0.63
2023-01-15T01:26:41.205Z,0.43
2023-01-15T01:29:11.234Z,0.60
2023-01-15T01:31:38.550Z,0.55
2023-01-15T01:34:12.340Z,0.60
2023-01-15T01:36:44.086Z,0.65
2023-01-15T01:39:20.017Z,0.85
2023-01-15T01:41:51.690Z,0.73
2023-01-15T01:44:33.935Z,0.60
2023-01-15T01:47:11.363Z,0.60
2023-01-15T01:49:39.912Z,0.40
2023-01-15T01:52:12.153Z,0.70
2023-01-15T01:54:45.487Z,0.63
2023-01-15T01:57:18.552Z,0.60
2023-01-15T01:59:49.074Z,0.60
2023-01-15T02:02:16.672Z,0.60
2023-01-15T02:04:52.298Z,0.50
2023-01-15T02:07:25.336Z,0.50
2023-01-15T02:09:53.845Z,0.60
2023-01-15T02:12:28.324Z,0.50
2023-01-15T02:15:04.478Z,0.50
2023-01-15T02:17:42.395Z,0.60
2023-01-15T02:20:22.479Z,0.60
2023-01-15T02:23:02.389Z,0.50
2023-01-15T02:25:32.865Z,0.50
2023-01-15T02:31:22.375Z,0.60
2023-01-15T02:34:17.174Z,0.50
2023-01-15T02:36:45.909Z,0.60
2023-01-15T02:39:14.305Z,0.55
2023-01-15T02:41:54.533Z,0.70
2023-01-15T02:44:23.477Z,0.50
2023-01-15T02:46:57.137Z,0.57
2023-01-15T02:49:33.242Z,0.50
2023-01-15T02:52:03.492Z,0.60
2023-01-15T02:54:37.328Z,0.50
2023-01-15T02:57:05.548Z,0.57
2023-01-15T02:59:38.806Z,0.50
2023-01-15T03:02:09.757Z,0.50
2023-01-15T03:05:03.698Z,0.47
2023-01-15T03:07:43.125Z,0.60
2023-01-15T03:10:34.134Z,0.55
2023-01-15T03:13:05.244Z,0.50
2023-01-15T03:16:09.095Z,0.60
2023-01-15T03:18:56.445Z,0.45
2023-01-15T03:21:32.711Z,0.40
2023-01-15T03:24:05.064Z,0.40
2023-01-15T03:26:33.383Z,0.40
2023-01-15T03:29:01.218Z,0.60
2023-01-15T03:31:29.485Z,0.60
2023-01-15T03:33:59.882Z,0.50
2023-01-15T03:36:31.337Z,0.55
2023-01-15T03:39:01.573Z,0.40
2023-01-15T03:41:37.743Z,0.43
2023-01-15T03:44:36.040Z,0.57
2023-01-15T03:47:12.115Z,0.50
2023-01-15T03:50:00.950Z,0.60
2023-01-15T03:52:38.363Z,0.60
2023-01-15T03:55:13.697Z,0.47
2023-01-15T03:57:52.915Z,0.47
2023-01-15T04:00:38.810Z,0.50
2023-01-15T04:03:07.578Z,0.50
2023-01-15T04:05:35.888Z,0.50
2023-01-15T04:08:03.963Z,0.50
2023-01-15T04:10:37.334Z,0.60
2023-01-15T04:13:08.402Z,0.50
2023-01-15T04:15:38.284Z,0.40
2023-01-15T04:18:05.415Z,0.45
2023-01-15T04:20:32.416Z,0.50
2023-01-15T04:23:31.749Z,0.63
2023-01-15T04:26:02.143Z,0.70
2023-01-15T04:28:32.533Z,0.50
2023-01-15T04:31:13.181Z,0.40
2023-01-15T04:33:42.912Z,0.50
2023-01-15T04:36:15.382Z,0.55
2023-01-15T04:38:42.799Z,0.50
2023-01-15T04:41:28.531Z,0.45
2023-01-15T04:44:07.046Z,0.52
2023-01-15T04:46:48.261Z,0.40
2023-01-15T04:49:19.542Z,0.70
2023-01-15T04:51:46.656Z,0.43
2023-01-15T04:54:17.227Z,0.50
2023-01-15T04:59:59.027Z,0.50
2023-01-15T05:02:29.082Z,0.40
2023-01-15T05:05:02.011Z,0.60
2023-01-15T05:07:32.054Z,0.52
2023-01-15T05:10:04.815Z,0.52
2023-01-15T05:12:37.473Z,0.40
2023-01-15T05:15:04.920Z,0.52
2023-01-15T05:17:34.951Z,0.45
2023-01-15T05:20:06.819Z,0.50
2023-01-15T05:22:39.435Z,0.40
2023-01-15T05:25:09.879Z,0.50
2023-01-15T05:27:42.789Z,0.50
2023-01-15T05:30:16.263Z,0.52
2023-01-15T05:32:50.435Z,0.40
2023-01-15T05:35:23.167Z,0.43
2023-01-15T05:37:55.698Z,0.50
2023-01-15T05:40:28.632Z,0.40
2023-01-15T05:42:59.341Z,0.40
2023-01-15T05:45:33.270Z,0.45
2023-01-15T05:48:02.795Z,0.40
2023-01-15T05:50:31.010Z,0.40
2023-01-15T05:53:00.738Z,0.40
2023-01-15T05:55:33.295Z,0.45
2023-01-15T05:58:09.172Z,0.50
2023-01-15T06:00:38.432Z,0.40
2023-01-15T06:03:05.568Z,0.40
2023-01-15T06:05:35.814Z,0.40
2023-01-15T06:08:06.782Z,0.40
2023-01-15T06:10:34.002Z,0.50
2023-01-15T06:13:00.969Z,0.60
2023-01-15T06:15:28.048Z,0.45
2023-01-15T06:17:58.079Z,0.60
2023-01-15T06:20:31.245Z,0.40
2023-01-15T06:23:03.597Z,0.40
2023-01-15T06:25:32.395Z,0.40
2023-01-15T06:27:59.446Z,0.40
2023-01-15T06:30:32.773Z,0.40
2023-01-15T06:33:05.246Z,0.43
2023-01-15T06:35:32.327Z,0.40
2023-01-15T06:37:59.195Z,0.40
2023-01-15T06:40:32.597Z,0.40
2023-01-15T06:43:17.975Z,0.32
2023-01-15T06:46:03.589Z,0.30
2023-01-15T06:48:33.771Z,0.40
2023-01-15T06:51:05.729Z,0.50
2023-01-15T06:53:37.436Z,0.40
2023-01-15T06:56:06.917Z,0.40
2023-01-15T06:58:37.210Z,0.40
2023-01-15T07:01:10.046Z,0.40
2023-01-15T07:03:37.851Z,0.40
2023-01-15T07:06:11.679Z,0.32
2023-01-15T07:08:38.983Z,0.40
2023-01-15T07:11:10.367Z,0.40
2023-01-15T07:13:40.580Z,0.40
2023-01-15T07:16:33.706Z,0.40
2023-01-15T07:19:10.382Z,0.40
2023-01-15T07:21:42.278Z,0.45
2023-01-15T07:24:15.772Z,0.40
2023-01-15T07:26:46.002Z,0.40
2023-01-15T07:29:17.021Z,0.35
2023-01-15T07:31:44.174Z,0.40
2023-01-15T07:34:13.109Z,0.40
2023-01-15T07:36:49.680Z,0.50
2023-01-15T07:39:16.812Z,0.40
2023-01-15T07:42:05.024Z,0.40
2023-01-15T07:44:53.834Z,0.40
2023-01-15T07:47:39.866Z,0.40
2023-01-15T07:50:10.683Z,0.40
2023-01-15T07:52:41.206Z,0.52
2023-01-15T07:55:17.606Z,0.38
2023-01-15T07:57:50.990Z,0.50
2023-01-15T08:00:23.643Z,0.40
2023-01-15T08:02:54.144Z,0.40
2023-01-15T08:05:21.488Z,0.55
2023-01-15T08:07:56.037Z,0.47
2023-01-15T08:10:30.802Z,0.40
2023-01-15T08:13:16.135Z,0.50
2023-01-15T08:15:44.280Z,0.50
2023-01-15T08:18:11.367Z,0.40
2023-01-15T08:20:39.118Z,0.40
2023-01-15T08:23:12.784Z,0.40
2023-01-15T08:25:42.594Z,0.40
2023-01-15T08:28:14.861Z,0.43
2023-01-15T08:30:44.734Z,0.40
2023-01-15T08:33:14.418Z,0.40
2023-01-15T08:35:50.008Z,0.40
2023-01-15T08:38:16.956Z,0.45
2023-01-15T08:40:58.861Z,0.30
2023-01-15T08:43:32.434Z,0.40
2023-01-15T08:46:00.286Z,0.40
2023-01-15T08:48:29.636Z,0.43
2023-01-15T08:50:56.623Z,0.30
2023-01-15T08:53:27.160Z,0.50
2023-01-15T08:55:59.519Z,0.40
2023-01-15T08:58:30.327Z,0.60
2023-01-15T09:01:01.105Z,0.50
2023-01-15T09:03:33.988Z,0.60
2023-01-15T09:06:07.641Z,0.47
2023-01-15T09:08:40.689Z,0.43
2023-01-15T09:11:10.566Z,0.50
2023-01-15T09:13:38.457Z,0.50
2023-01-15T09:16:07.244Z,0.40
2023-01-15T09:18:39.388Z,0.40
2023-01-15T09:21:13.685Z,0.43
2023-01-15T09:23:45.074Z,0.40
2023-01-15T09:26:26.379Z,0.60
2023-01-15T09:28:53.354Z,0.40
2023-01-15T09:31:20.323Z,0.50
2023-01-15T09:33:50.498Z,0.50
2023-01-15T09:36:28.513Z,0.50
2023-01-15T09:38:57.911Z,0.40
2023-01-15T09:41:52.145Z,0.40
2023-01-15T09:44:26.875Z,0.40
2023-01-15T09:46:57.215Z,0.40
2023-01-15T09:49:44.318Z,0.50
2023-01-15T09:52:23.459Z,0.40
2023-01-15T09:55:00.137Z,0.40
2023-01-15T09:57:31.356Z,0.40
2023-01-15T10:00:02.566Z,0.40
2023-01-15T10:02:34.620Z,0.40
2023-01-15T10:05:11.194Z,0.40
2023-01-15T10:07:56.957Z,0.40
2023-01-15T10:10:33.433Z,0.40
2023-01-15T10:13:05.562Z,0.40
2023-01-15T10:15:49.850Z,0.40
2023-01-15T10:18:24.123Z,0.40
2023-01-15T10:20:56.614Z,0.40
2023-01-15T10:23:26.784Z,0.50
2023-01-15T10:26:00.890Z,0.50
2023-01-15T10:28:34.855Z,0.40
2023-01-15T10:31:19.431Z,0.30
2023-01-15T10:33:47.138Z,0.40
2023-01-15T10:36:17.366Z,0.40
2023-01-15T10:39:17.384Z,0.40
2023-01-15T10:41:59.779Z,0.40
2023-01-15T10:44:31.584Z,0.47
2023-01-15T10:47:05.596Z,0.40
2023-01-15T10:49:36.218Z,0.60
2023-01-15T10:52:20.117Z,0.40
2023-01-15T10:54:48.798Z,0.50
2023-01-15T10:57:21.114Z,0.47
2023-01-15T11:00:00.787Z,0.70
2023-01-15T11:02:37.214Z,0.57
2023-01-15T11:05:15.996Z,0.65
2023-01-15T11:08:13.795Z,0.60
2023-01-15T11:10:33.906Z,0.45
2023-01-15T11:13:28.429Z,0.50
2023-01-15T11:16:14.781Z,0.50
2023-01-15T11:19:01.296Z,0.70
2023-01-15T11:21:37.755Z,0.40
2023-01-15T11:24:08.400Z,0.50
2023-01-15T11:26:41.317Z,0.50
2023-01-15T11:29:41.103Z,0.43
2023-01-15T11:32:19.970Z,0.57
2023-01-15T11:34:57.286Z,0.55
2023-01-15T11:37:36.773Z,0.55
2023-01-15T11:40:21.466Z,0.65
2023-01-15T11:43:10.469Z,0.50
2023-01-15T11:46:11.590Z,0.50
2023-01-15T11:49:06.918Z,0.35
2023-01-15T11:51:45.000Z,0.45
2023-01-15T11:54:14.389Z,0.50
2023-01-15T11:56:48.674Z,0.40
2023-01-15T11:59:22.634Z,0.40
2023-01-15T12:02:00.394Z,0.40
2023-01-15T12:04:39.093Z,0.52
2023-01-15T12:07:07.567Z,0.50
2023-01-15T12:09:41.102Z,0.47
2023-01-15T12:12:08.512Z,0.40
2023-01-15T12:14:44.737Z,0.50
2023-01-15T12:17:23.360Z,0.40
2023-01-15T12:20:04.334Z,0.30
2023-01-15T12:22:37.102Z,0.40
2023-01-15T12:25:30.529Z,0.40
2023-01-15T12:28:13.607Z,0.45
2023-01-15T12:30:45.488Z,0.40
2023-01-15T12:33:15.784Z,0.50
2023-01-15T12:35:45.340Z,0.40
2023-01-15T12:38:24.556Z,0.40
2023-01-15T12:41:15.047Z,0.47
2023-01-15T12:44:02.698Z,0.35
2023-01-15T12:46:35.734Z,0.40
2023-01-15T12:49:26.022Z,0.40
2023-01-15T12:52:02.284Z,0.40
2023-01-15T12:54:37.343Z,0.55
2023-01-15T12:57:17.069Z,0.40
2023-01-15T12:59:58.371Z,0.47
2023-01-15T13:02:57.924Z,0.40
2023-01-15T13:05:40.039Z,0.40
2023-01-15T13:08:21.564Z,0.45
2023-01-15T13:10:51.699Z,0.40
2023-01-15T13:13:24.842Z,0.40
2023-01-15T13:16:04.000Z,0.40
2023-01-15T13:18:43.521Z,0.50
2023-01-15T13:21:15.073Z,0.65
2023-01-15T13:23:57.151Z,0.50
2023-01-15T13:26:29.906Z,0.45
2023-01-15T13:29:01.178Z,0.70
2023-01-15T13:31:43.854Z,1.23
2023-01-15T13:34:16.278Z,1.08
2023-01-15T13:36:49.688Z,0.70
2023-01-15T13:39:22.142Z,0.70
2023-01-15T13:42:09.481Z,0.55
2023-01-15T13:44:38.301Z,0.52
2023-01-15T13:47:11.694Z,0.65
2023-01-15T13:49:44.436Z,0.70
2023-01-15T13:52:20.975Z,0.65
2023-01-15T13:54:48.206Z,0.60
2023-01-15T13:57:34.894Z,0.50
2023-01-15T14:00:06.528Z,0.52
2023-01-15T14:02:35.578Z,0.80
2023-01-15T14:05:25.760Z,0.50
2023-01-15T14:07:53.176Z,0.52
2023-01-15T14:10:26.213Z,0.50
2023-01-15T14:13:09.485Z,0.52
2023-01-15T14:15:52.736Z,0.60
2023-01-15T14:18:28.993Z,0.40
2023-01-15T14:20:56.255Z,0.50
2023-01-15T14:23:38.910Z,0.70
2023-01-15T14:26:20.912Z,0.47
2023-01-15T14:28:50.892Z,0.40
2023-01-15T14:31:25.646Z,0.40
2023-01-15T14:34:09.890Z,0.60
2023-01-15T14:36:41.734Z,0.50
2023-01-15T14:39:25.141Z,0.47
2023-01-15T14:42:22.762Z,0.55
2023-01-15T14:45:00.563Z,0.60
2023-01-15T14:47:49.551Z,0.60
2023-01-15T14:50:38.230Z,0.40
2023-01-15T14:53:08.603Z,0.50
2023-01-15T14:55:41.169Z,0.45
2023-01-15T14:58:31.091Z,0.50
2023-01-15T15:01:16.646Z,0.50
2023-01-15T15:03:52.358Z,0.60
2023-01-15T15:06:23.293Z,0.43
2023-01-15T15:08:55.490Z,0.43
2023-01-15T15:11:44.189Z,0.50
2023-01-15T15:14:13.896Z,0.63
2023-01-15T15:16:54.024Z,0.40
2023-01-15T15:19:29.721Z,0.50
2023-01-15T15:22:02.284Z,0.52
2023-01-15T15:24:37.094Z,0.57
2023-01-15T15:27:30.927Z,0.40
2023-01-15T15:30:05.422Z,0.40
2023-01-15T15:32:35.036Z,0.50
2023-01-15T15:35:07.709Z,0.57
2023-01-15T15:37:37.807Z,0.70
2023-01-15T15:40:19.044Z,0.50
2023-01-15T15:43:07.201Z,0.50
2023-01-15T15:45:52.420Z,0.57
2023-01-15T15:48:44.015Z,0.40
2023-01-15T15:51:29.856Z,0.43
2023-01-15T15:54:19.258Z,0.57
2023-01-15T15:56:52.851Z,0.40
2023-01-15T15:59:41.569Z,0.75
2023-01-15T16:02:19.537Z,0.93
2023-01-15T16:04:53.447Z,0.70
2023-01-15T16:07:38.562Z,0.40
2023-01-15T16:10:19.243Z,0.65
2023-01-15T16:12:51.210Z,0.45
2023-01-15T16:15:28.752Z,0.55
2023-01-15T16:18:02.220Z,0.50
2023-01-15T16:20:36.009Z,0.43
2023-01-15T16:23:15.231Z,0.80
2023-01-15T16:25:55.505Z,0.60
2023-01-15T16:28:37.920Z,0.50
2023-01-15T16:31:08.221Z,0.60
2023-01-15T16:33:39.402Z,0.60
2023-01-15T16:36:13.475Z,0.40
2023-01-15T16:38:44.863Z,0.60
2023-01-15T16:41:25.497Z,0.50
2023-01-15T16:44:00.773Z,0.60
2023-01-15T16:46:39.506Z,0.60
2023-01-15T16:49:18.471Z,0.60
2023-01-15T16:51:51.453Z,0.52
2023-01-15T16:54:32.043Z,0.55
2023-01-15T16:57:01.133Z,0.50
2023-01-15T16:59:32.415Z,0.90
2023-01-15T17:02:14.511Z,0.50
2023-01-15T17:04:47.369Z,0.70
2023-01-15T17:07:17.638Z,0.63
2023-01-15T17:09:46.493Z,0.70
2023-01-15T17:12:34.549Z,0.68
2023-01-15T17:15:16.718Z,0.60
2023-01-15T17:17:45.018Z,0.70
2023-01-15T17:20:19.262Z,1.05
2023-01-15T17:22:47.527Z,0.63
2023-01-15T17:25:27.474Z,0.43
2023-01-15T17:27:59.137Z,0.60
2023-01-15T17:30:31.760Z,0.73
2023-01-15T17:33:05.006Z,0.73
2023-01-15T17:35:39.534Z,0.80
2023-01-15T17:38:15.739Z,0.40
2023-01-15T17:40:43.148Z,0.68
2023-01-15T17:43:17.134Z,0.50
2023-01-15T17:45:48.061Z,0.60
2023-01-15T17:48:17.818Z,0.70
2023-01-15T17:50:48.520Z,0.75
2023-01-15T17:53:20.758Z,0.45
2023-01-15T17:56:06.009Z,0.55
2023-01-15T17:58:54.260Z,0.82
2023-01-15T18:01:41.409Z,0.73
2023-01-15T18:04:44.692Z,0.98
2023-01-15T18:07:19.821Z,0.50
2023-01-15T18:09:51.365Z,0.68
2023-01-15T18:12:24.582Z,0.70
2023-01-15T18:14:54.137Z,0.75
2023-01-15T18:17:27.524Z,0.47
2023-01-15T18:19:58.121Z,0.82
2023-01-15T18:22:27.654Z,0.60
2023-01-15T18:24:55.998Z,0.60
2023-01-15T18:27:30.946Z,0.65
2023-01-15T18:30:04.433Z,0.80
2023-01-15T18:32:36.248Z,0.65
2023-01-15T18:35:06.850Z,0.50
2023-01-15T18:37:37.806Z,0.40
2023-01-15T18:40:06.030Z,0.80
2023-01-15T18:42:56.596Z,0.85
2023-01-15T18:45:41.799Z,0.80
2023-01-15T18:48:13.166Z,0.85
2023-01-15T18:50:41.114Z,1.23
2023-01-15T18:53:15.311Z,0.70
2023-01-15T18:55:47.765Z,0.80
2023-01-15T18:58:15.516Z,1.05
2023-01-15T19:00:45.458Z,1.20
2023-01-15T19:03:18.337Z,1.10
2023-01-15T19:05:45.803Z,0.80
2023-01-15T19:08:23.359Z,0.93
2023-01-15T19:10:50.970Z,0.65
2023-01-15T19:13:24.205Z,0.85
2023-01-15T19:16:13.632Z,0.95
2023-01-15T19:18:43.299Z,0.77
2023-01-15T19:21:14.208Z,0.60
2023-01-15T19:23:41.787Z,0.68
2023-01-15T19:26:12.356Z,0.60
2023-01-15T19:28:44.491Z,0.80
2023-01-15T19:31:32.158Z,0.70
2023-01-15T19:34:31.540Z,1.35
2023-01-15T19:36:53.998Z,0.77
2023-01-15T19:39:30.916Z,0.60
2023-01-15T19:42:17.242Z,0.77
2023-01-15T19:45:06.209Z,0.90
2023-01-15T19:47:55.850Z,0.60
2023-01-15T19:50:30.884Z,1.13
2023-01-15T19:53:03.524Z,1.00
2023-01-15T19:55:35.689Z,1.00
2023-01-15T19:58:10.253Z,0.75
2023-01-15T20:00:44.108Z,0.75
2023-01-15T20:03:17.918Z,0.63
2023-01-15T20:05:48.565Z,0.93
2023-01-15T20:08:19.041Z,1.00
2023-01-15T20:10:50.236Z,0.80
2023-01-15T20:13:39.480Z,1.08
2023-01-15T20:16:13.597Z,0.93
2023-01-15T20:18:42.206Z,1.08
2023-01-15T20:21:18.429Z,0.85
2023-01-15T20:23:54.881Z,1.00
2023-01-15T20:26:28.088Z,1.27
2023-01-15T20:28:55.090Z,0.60
2023-01-15T20:31:31.166Z,0.90
2023-01-15T20:34:04.978Z,1.00
2023-01-15T20:36:36.156Z,0.65
2023-01-15T20:39:08.238Z,0.70
2023-01-15T20:41:56.891Z,0.57
2023-01-15T20:44:42.337Z,0.70
2023-01-15T20:47:32.562Z,0.50
2023-01-15T20:50:02.513Z,0.70
2023-01-15T20:52:36.019Z,0.40
2023-01-15T20:55:06.722Z,0.80
2023-01-15T20:57:37.219Z,0.70
2023-01-15T21:00:14.373Z,0.70
2023-01-15T21:02:45.040Z,0.98
2023-01-15T21:05:15.744Z,0.75
2023-01-15T21:07:50.157Z,0.60
2023-01-15T21:10:26.197Z,0.60
2023-01-15T21:12:55.675Z,0.68
2023-01-15T21:15:25.700Z,0.68
2023-01-15T21:17:56.213Z,0.65
2023-01-15T21:20:23.210Z,0.95
2023-01-15T21:22:57.867Z,0.90
2023-01-15T21:25:27.995Z,0.80
2023-01-15T21:27:59.085Z,0.80
2023-01-15T21:30:30.968Z,0.98
2023-01-15T21:33:01.183Z,0.70
2023-01-15T21:35:36.925Z,0.77
2023-01-15T21:38:07.962Z,0.60
2023-01-15T21:40:39.217Z,0.65
2023-01-15T21:43:25.056Z,0.80
2023-01-15T21:46:05.496Z,0.50
2023-01-15T21:48:42.059Z,0.73
2023-01-15T21:51:18.103Z,0.68
2023-01-15T21:53:49.269Z,0.60
2023-01-15T21:56:25.133Z,0.80
2023-01-15T21:58:56.989Z,0.77
2023-01-15T22:01:29.607Z,0.60
2023-01-15T22:04:03.259Z,0.60
2023-01-15T22:06:31.092Z,0.57
2023-01-15T22:09:04.055Z,0.68
2023-01-15T22:11:46.961Z,0.73
2023-01-15T22:14:26.448Z,0.40
2023-01-15T22:17:01.201Z,0.70
2023-01-15T22:19:33.279Z,0.60
2023-01-15T22:22:06.732Z,0.68
2023-01-15T22:24:38.046Z,0.60
2023-01-15T22:27:08.891Z,0.65
2023-01-15T22:29:42.646Z,0.60
2023-01-15T22:32:17.096Z,0.73
2023-01-15T22:34:46.673Z,0.57
2023-01-15T22:37:19.759Z,0.90
2023-01-15T22:39:51.928Z,0.60
2023-01-15T22:42:31.259Z,0.80
2023-01-15T22:45:04.412Z,0.60
2023-01-15T22:47:38.165Z,0.57
2023-01-15T22:50:07.732Z,0.60
2023-01-15T22:52:42.132Z,0.60
2023-01-15T22:55:13.139Z,0.50
2023-01-15T22:57:40.311Z,0.80
2023-01-15T23:00:07.895Z,0.80
2023-01-15T23:02:53.284Z,0.70
2023-01-15T23:05:29.821Z,0.50
2023-01-15T23:08:03.132Z,0.55
2023-01-15T23:10:33.778Z,0.60
2023-01-15T23:13:06.881Z,0.60
2023-01-15T23:15:39.145Z,0.60
2023-01-15T23:18:11.729Z,0.73
2023-01-15T23:20:46.849Z,0.60
2023-01-15T23:23:19.944Z,0.50
2023-01-15T23:25:50.420Z,0.75
2023-01-15T23:28:23.136Z,0.85
2023-01-15T23:30:55.630Z,0.80
2023-01-15T23:33:32.328Z,0.60
2023-01-15T23:36:11.431Z,0.63
2023-01-15T23:38:43.903Z,0.60
2023-01-15T23:41:18.876Z,0.60
2023-01-15T23:44:07.857Z,0.70
2023-01-15T23:46:37.986Z,0.63
2023-01-15T23:49:10.448Z,0.77
2023-01-15T23:51:40.832Z,0.80
2023-01-15T23:54:13.014Z,0.50
2023-01-15T23:56:44.166Z,0.60
2023-01-15T23:59:14.911Z,0.50
